Poolville, TX (76487)

1:34 AM CST on December 18, 2014 (GMT -0600)
Unit 2 | Change Station
CLOSE
Current Station
Personal Weather Station
Location: Cottondale, TX
Elevation: 889 ft
Nearby Weather Stations

Elev 889 ft 33.05 °N, 97.72 °W | Updated 11 minutes ago

Overcast
Overcast
41.8 °F
Feels Like 39 °F
N
4.0
Wind Variable Wind from SSE

Today
High -- | Low -- °F
--% Chance of Precip.
Yesterday
High -- | Low -- °F
Precip. -- in
7:28 AM 5:27 PM
Waning Crescent, 16% visible
Pressure 30.14 in
Visibility 3.0 miles
Clouds Overcast 300 ft
Windchill 39 °F
Dew Point 41 °F
Humidity 96%
Rainfall 0.00 in
Snow Depth Not available.
UV 0.0 out of 12
Pollen 8.20 out of 12
Air Quality Not available.
Flu Activity Not available.
METAR KXBP 180715Z AUTO 12003KT 3SM BR OVC003 05/05 A3014 RMK AO2 T00500050

More Conditions Fewer Conditions

Pressure 30.14 in
Visibility 3.0 miles
Clouds Overcast 300 ft
Windchill 39 °F
Dew Point 41 °F
Humidity 96%
Rainfall 0.00 in
Snow Depth Not available.
UV 0.0 out of 12
Pollen 8.20 out of 12
Air Quality Not available.
Flu Activity Not available.
METAR KXBP 180715Z AUTO 12003KT 3SM BR OVC003 05/05 A3014 RMK AO2 T00500050

More Conditions Fewer Conditions

Nowcast | as of 11:52 PM CST on December 17, 2014

As light rain and scattered showers...southeast of a Bonham to Lampasas line....continues to move southeast overnight...light drizzle will fill in behind. It will be a cloudy...damp and cold night across the entire area. Some dense fog is possible in the late night hours.

×

10-Day Weather Forecast

Almanac

Astronomy

Dec. 18, 2014 Rise Set
Actual Time
Civil Twilight
Nautical Twilight
Astronomical Twilight
Moon
Length of Visible Light
Length of Day
Tomorrow will be .
, % of the Moon is Illuminated

Today's Extremes

State Highs State Lows

Community

WunderPhotos

Upload Photos

1,778,900 photos uploaded!

WunderBlogs® & News

Nearby

Air Quality

  Air Quality AQ Index Pollutant
Not available.

Snow Depth

Station Depth Elevation

Earthquake Activity

City Distance Mag. Time & Date
Minimum magnitude displayed is 2.5.

Coastal Water Temperatures

Place Temperature

Nearby Weather Stations